Time;durP1;ratioP1;P1;durP2;ratioP2;P2;SDS_P1;SDS_P2;PMS_P1;PMS_P2;Temp;Humidity;BMP_temperature;BMP_pressure;BME280_temperature;BME280_humidity;BME280_pressure;Samples;Min_cycle;Max_cycle;Signal;HPM_P1;HPM_P2
2022/08/27 00:09:56;;;;;;;;;;;;;;;25.44;50.26;99690.53;20674203;28;20056;-74
2022/08/27 00:19:57;;;;;;;8.98;4.60;;;;;;;25.38;50.12;99692.84;20699832;28;20660;-74
2022/08/27 00:29:57;;;;;;;12.70;5.32;;;;;;;25.32;50.68;99705.91;20674929;28;20101;-73
2022/08/27 00:39:58;;;;;;;16.65;5.25;;;;;;;25.26;50.69;99705.53;20686733;28;20052;-74
2022/08/27 00:50:06;;;;;;;16.65;4.95;;;;;;;25.29;50.43;99724.75;20659587;28;20049;-74
2022/08/27 01:00:11;;;;;;;13.18;5.00;;;;;;;25.20;50.44;99713.31;20667811;28;20157;-74
2022/08/27 01:10:18;;;;;;;12.13;5.00;;;;;;;25.13;50.66;99728.19;20656242;28;20061;-73
2022/08/27 01:20:27;;;;;;;13.52;5.05;;;;;;;25.03;51.13;99720.41;20665901;28;20053;-74
2022/08/27 01:30:28;;;;;;;13.48;4.90;;;;;;;24.97;51.34;99726.34;20682554;28;20054;-74
2022/08/27 01:40:29;;;;;;;10.60;4.40;;;;;;;24.91;50.97;99728.63;20692093;28;20048;-73
2022/08/27 01:50:35;;;;;;;10.48;4.85;;;;;;;24.85;51.07;99729.28;20687163;28;20046;-73
2022/08/27 02:00:40;;;;;;;11.88;4.45;;;;;;;24.79;51.01;99732.53;20690233;28;20056;-72
2022/08/27 02:10:42;;;;;;;16.20;4.55;;;;;;;24.72;51.16;99729.69;20698436;28;20056;-72
2022/08/27 02:20:45;;;;;;;11.40;4.43;;;;;;;24.67;51.60;99732.00;20665536;28;20037;-73
2022/08/27 02:30:45;;;;;;;13.80;5.20;;;;;;;24.60;51.76;99721.16;20695189;28;20441;-71
2022/08/27 02:40:45;;;;;;;10.07;5.03;;;;;;;24.52;52.19;99715.81;20692040;28;20037;-72
2022/08/27 02:50:46;;;;;;;11.63;4.53;;;;;;;24.48;52.30;99711.03;20689960;28;20042;-73
2022/08/27 03:00:46;;;;;;;11.35;4.57;;;;;;;24.42;52.27;99723.06;20685490;28;20141;-74
2022/08/27 03:10:47;;;;;;;8.82;4.53;;;;;;;24.35;52.45;99714.09;20702219;28;20112;-74
2022/08/27 03:20:50;;;;;;;15.10;4.75;;;;;;;24.30;52.73;99720.69;20683365;28;20053;-74
2022/08/27 03:30:58;;;;;;;11.48;4.75;;;;;;;24.22;52.92;99715.34;20695431;28;21586;-73
2022/08/27 03:40:59;;;;;;;13.93;5.18;;;;;;;24.13;53.21;99729.47;20694112;28;20065;-72
2022/08/27 03:51:09;;;;;;;11.00;5.13;;;;;;;24.13;52.97;99719.75;20698959;28;20069;-74
2022/08/27 04:01:09;;;;;;;14.50;4.45;;;;;;;24.06;52.94;99717.84;20688280;28;20099;-74
2022/08/27 04:11:10;;;;;;;15.27;4.60;;;;;;;24.00;52.86;99723.75;20655576;28;20054;-74
2022/08/27 04:21:13;;;;;;;11.07;4.40;;;;;;;23.95;52.94;99729.53;20689952;28;20069;-74
2022/08/27 04:31:13;;;;;;;11.85;4.35;;;;;;;23.93;52.92;99739.41;20666027;28;20050;-74
2022/08/27 04:41:25;;;;;;;10.23;4.15;;;;;;;23.90;52.70;99732.59;20675622;28;20055;-73
2022/08/27 04:51:27;;;;;;;12.98;4.85;;;;;;;23.88;52.80;99731.91;20638366;28;20042;-73
2022/08/27 05:01:29;;;;;;;10.45;6.97;;;;;;;23.85;52.46;99728.72;20634642;28;20618;-76
2022/08/27 05:11:33;;;;;;;;;;;;;;;23.86;52.32;99738.34;20697035;28;20048;-72
2022/08/27 05:21:37;;;;;;;8.50;4.85;;;;;;;23.82;52.40;99749.19;20677869;28;21653;-72
2022/08/27 05:31:38;;;;;;;11.95;4.80;;;;;;;23.86;51.99;99748.91;20692559;28;20042;-74
2022/08/27 05:41:39;;;;;;;17.93;6.10;;;;;;;23.87;52.23;99750.56;20676280;28;20048;-73
2022/08/27 05:51:40;;;;;;;12.65;4.93;;;;;;;23.90;52.06;99737.03;20676835;28;20394;-74
2022/08/27 06:01:45;;;;;;;12.43;4.50;;;;;;;23.95;51.44;99735.63;20691774;28;20034;-73
2022/08/27 06:11:45;;;;;;;10.05;4.10;;;;;;;24.00;50.90;99740.47;20688276;28;20049;-73
2022/08/27 06:21:46;;;;;;;11.45;3.60;;;;;;;24.08;50.66;99745.81;20671751;28;20064;-74
2022/08/27 06:31:47;;;;;;;8.03;4.00;;;;;;;24.15;50.14;99751.31;20656090;28;20072;-76
2022/08/27 06:41:49;;;;;;;9.83;4.50;;;;;;;24.24;49.99;99762.78;20685650;28;20404;-72
2022/08/27 06:51:49;;;;;;;8.80;4.00;;;;;;;24.32;50.07;99768.13;20674380;28;20164;-75
2022/08/27 07:01:50;;;;;;;10.27;4.10;;;;;;;24.41;50.11;99775.16;20695609;28;20042;-77
2022/08/27 07:11:50;;;;;;;8.17;4.10;;;;;;;24.47;49.99;99776.34;20664661;28;20050;-78
2022/08/27 07:21:51;;;;;;;11.85;4.50;;;;;;;24.57;49.90;99785.03;20620227;28;20113;-74
2022/08/27 07:31:51;;;;;;;11.07;4.00;;;;;;;24.63;48.50;99788.84;20658543;28;20049;-74
2022/08/27 07:52:15;;;;;;;6.53;3.60;;;;;;;24.76;47.60;99789.28;20592750;28;20054;-72
2022/08/27 08:02:15;;;;;;;10.87;3.90;;;;;;;24.82;47.98;99787.00;20630030;28;21316;-71
2022/08/27 08:12:16;;;;;;;5.57;3.40;;;;;;;24.89;47.68;99786.22;20657703;28;20524;-72
2022/08/27 08:22:16;;;;;;;6.20;3.70;;;;;;;24.97;47.81;99792.53;20685633;28;20065;-72
2022/08/27 08:32:17;;;;;;;8.60;3.97;;;;;;;25.01;47.88;99797.38;20690880;28;20077;-72
2022/08/27 08:42:29;;;;;;;8.53;3.90;;;;;;;25.08;47.55;99797.56;20667207;28;20065;-71
2022/08/27 08:52:53;;;;;;;9.05;4.38;;;;;;;25.12;48.02;99804.22;20626766;28;20104;-72
2022/08/27 09:02:54;;;;;;;7.20;3.85;;;;;;;25.20;48.16;99795.47;20692063;28;20390;-73
2022/08/27 09:13:01;;;;;;;7.97;4.10;;;;;;;25.33;49.03;99790.53;20701420;28;20429;-72
2022/08/27 09:23:24;;;;;;;17.10;4.57;;;;;;;25.50;51.54;99783.50;20714577;28;20076;-72
2022/08/27 09:33:25;;;;;;;11.27;3.65;;;;;;;25.60;52.41;99770.09;20713924;28;20127;-74
2022/08/27 09:43:30;;;;;;;11.60;3.67;;;;;;;25.64;49.63;99768.75;20758368;28;20141;-74
2022/08/27 09:54:03;;;;;;;10.23;3.13;;;;;;;25.69;45.64;99768.28;20709430;28;20129;-71
2022/08/27 10:04:10;;;;;;;5.80;2.83;;;;;;;25.73;45.28;99764.28;20672430;28;20042;-72
2022/08/27 10:14:24;;;;;;;7.68;2.75;;;;;;;25.75;44.54;99762.31;20682908;28;20042;-72
2022/08/27 10:24:48;;;;;;;7.18;2.75;;;;;;;25.79;44.24;99749.56;20744894;28;20038;-73
2022/08/27 10:35:19;;;;;;;8.18;2.88;;;;;;;25.82;43.54;99762.50;20748749;28;20053;-72
2022/08/27 10:45:35;;;;;;;5.28;2.30;;;;;;;25.87;42.74;99757.53;20740792;28;20563;-73
2022/08/27 10:55:50;;;;;;;9.65;2.85;;;;;;;25.90;42.36;99751.88;20708041;28;20093;-72
2022/08/27 11:05:51;;;;;;;8.38;2.58;;;;;;;25.97;42.22;99746.75;20683497;28;20529;-71
2022/08/27 11:15:55;;;;;;;7.65;2.40;;;;;;;26.02;41.17;99737.31;20677547;28;20041;-73
2022/08/27 11:26:02;;;;;;;8.10;2.80;;;;;;;26.14;41.13;99732.50;20638654;28;20045;-73
2022/08/27 11:36:09;;;;;;;7.28;3.00;;;;;;;26.17;43.25;99715.41;20639474;28;20520;-72
2022/08/27 11:46:10;;;;;;;4.88;2.70;;;;;;;26.22;43.14;99715.75;20659473;28;20532;-75
2022/08/27 11:56:14;;;;;;;14.35;3.05;;;;;;;26.31;45.87;99706.75;20670677;28;20476;-71
2022/08/27 12:06:25;;;;;;;17.58;3.17;;;;;;;26.40;47.53;99701.44;20686151;28;20524;-71
2022/08/27 12:16:53;;;;;;;5.13;2.60;;;;;;;26.44;45.01;99689.47;20775207;28;20042;-70
2022/08/27 12:26:57;;;;;;;8.88;2.70;;;;;;;26.52;45.58;99682.34;20780008;28;20081;-71
2022/08/27 12:37:00;;;;;;;7.03;2.58;;;;;;;26.59;45.54;99674.50;20763992;28;20049;-71
2022/08/27 12:47:07;;;;;;;9.40;2.90;;;;;;;26.63;45.42;99659.88;20797003;28;20516;-70
2022/08/27 12:57:22;;;;;;;3.40;2.40;;;;;;;26.71;45.48;99650.22;20775670;28;20065;-70
2022/08/27 13:07:27;;;;;;;3.28;2.30;;;;;;;26.77;45.38;99647.72;20784471;28;20076;-71
2022/08/27 13:17:27;;;;;;;7.10;2.47;;;;;;;26.83;45.51;99644.38;20789241;28;20488;-71
2022/08/27 13:27:33;;;;;;;3.63;2.20;;;;;;;26.90;45.72;99643.69;20793948;28;20124;-70
2022/08/27 13:37:40;;;;;;;5.10;2.40;;;;;;;26.97;45.98;99641.97;20763441;28;20049;-71
2022/08/27 13:47:45;;;;;;;2.70;2.30;;;;;;;27.02;45.67;99642.28;20763385;28;20041;-70
2022/08/27 13:57:50;;;;;;;2.60;2.00;;;;;;;27.07;45.72;99631.94;20765812;28;20069;-70
2022/08/27 14:07:57;;;;;;;3.03;2.15;;;;;;;27.13;45.66;99639.19;20750971;28;20077;-69
2022/08/27 14:17:58;;;;;;;2.90;1.83;;;;;;;27.17;45.59;99632.56;20775746;28;20053;-70
2022/08/27 14:27:59;;;;;;;4.05;2.17;;;;;;;27.23;45.91;99627.53;20776049;28;20077;-71
2022/08/27 14:38:21;;;;;;;5.15;2.20;;;;;;;27.24;45.53;99621.22;20774724;28;20057;-70
2022/08/27 14:48:26;;;;;;;3.42;2.00;;;;;;;27.29;45.83;99619.69;20776603;28;20045;-70
2022/08/27 14:58:28;;;;;;;4.53;2.00;;;;;;;27.34;45.93;99629.75;20747179;28;20460;-70
2022/08/27 15:08:28;;;;;;;1.92;1.60;;;;;;;27.37;45.52;99636.53;20787123;28;20758;-71
2022/08/27 15:18:29;;;;;;;3.15;1.92;;;;;;;27.37;45.76;99634.72;20765601;28;20058;-71
2022/08/27 15:28:30;;;;;;;4.43;2.05;;;;;;;27.39;46.04;99643.38;20775300;28;20046;-71
2022/08/27 15:38:30;;;;;;;2.33;1.83;;;;;;;27.37;46.00;99640.03;20765268;28;20037;-71
2022/08/27 15:48:31;;;;;;;3.10;1.90;;;;;;;27.39;45.78;99639.84;20757302;28;20049;-71
2022/08/27 15:58:34;;;;;;;1.60;1.50;;;;;;;27.36;46.03;99649.03;20766717;28;20784;-71
2022/08/27 16:08:34;;;;;;;2.40;1.60;;;;;;;27.33;46.25;99644.03;20756916;28;20117;-70
2022/08/27 16:18:36;;;;;;;3.00;1.90;;;;;;;27.31;46.41;99654.88;20775113;28;20041;-70
2022/08/27 16:28:37;;;;;;;3.90;2.00;;;;;;;27.27;46.30;99647.41;20754819;28;20065;-70
2022/08/27 16:38:38;;;;;;;2.35;1.60;;;;;;;27.25;46.61;99660.88;20790963;28;20069;-70
2022/08/27 16:58:58;;;;;;;1.92;1.67;;;;;;;27.19;46.33;99655.47;20785294;28;20541;-70
2022/08/27 17:08:58;;;;;;;2.08;1.58;;;;;;;27.16;46.56;99659.31;20804456;28;20129;-70
2022/08/27 17:18:59;;;;;;;1.97;1.60;;;;;;;27.12;46.58;99680.09;20785827;28;20425;-71
2022/08/27 17:29:00;;;;;;;2.30;1.73;;;;;;;27.10;46.95;99694.53;20768515;28;20275;-71
2022/08/27 17:39:01;;;;;;;2.38;1.60;;;;;;;27.07;46.82;99714.31;20773749;28;20045;-71
2022/08/27 17:49:02;;;;;;;1.70;1.50;;;;;;;27.04;47.12;99722.66;20778461;28;20168;-71
2022/08/27 17:59:02;;;;;;;1.63;1.52;;;;;;;27.00;47.26;99724.81;20778547;28;20129;-71
2022/08/27 18:09:03;;;;;;;2.00;1.50;;;;;;;26.98;46.97;99742.75;20780126;28;20059;-69
2022/08/27 18:19:04;;;;;;;1.73;1.63;;;;;;;26.96;47.72;99749.25;20770640;28;20072;-70
2022/08/27 18:29:04;;;;;;;1.60;1.50;;;;;;;26.94;47.36;99756.56;20783159;28;20575;-71
2022/08/27 18:39:05;;;;;;;1.60;1.50;;;;;;;26.91;47.23;99755.06;20775356;28;20259;-71
2022/08/27 18:49:05;;;;;;;1.70;1.60;;;;;;;26.90;47.26;99765.88;20760154;28;20041;-71
2022/08/27 18:59:05;;;;;;;1.73;1.40;;;;;;;26.87;47.53;99760.88;20773527;28;20080;-70
2022/08/27 19:09:06;;;;;;;1.83;1.70;;;;;;;26.85;47.68;99763.72;20764195;28;20073;-71
2022/08/27 19:19:06;;;;;;;2.10;1.57;;;;;;;26.83;47.55;99766.56;20773337;28;20037;-71
2022/08/27 19:29:07;;;;;;;1.47;1.37;;;;;;;26.81;47.50;99744.66;20770452;28;20088;-70
2022/08/27 19:39:10;;;;;;;1.73;1.60;;;;;;;26.81;47.82;99743.84;20782489;28;20037;-70
2022/08/27 19:49:10;;;;;;;1.73;1.60;;;;;;;26.79;47.68;99741.34;20769046;28;20057;-70
2022/08/27 19:59:12;;;;;;;1.77;1.67;;;;;;;26.79;47.70;99748.47;20754288;28;20049;-70
2022/08/27 20:09:15;;;;;;;2.53;1.80;;;;;;;26.78;48.01;99776.03;20771720;28;20496;-71
2022/08/27 20:19:16;;;;;;;1.92;1.80;;;;;;;26.78;48.12;99779.53;20778602;28;20449;-72
2022/08/27 20:29:17;;;;;;;3.65;1.52;;;;;;;26.76;47.81;99780.72;20776884;28;20046;-71
2022/08/27 20:39:18;;;;;;;2.23;1.67;;;;;;;26.75;48.10;99763.94;20781905;28;20045;-71
2022/08/27 20:49:20;;;;;;;2.42;1.90;;;;;;;26.75;48.36;99771.06;20786318;28;20128;-71
2022/08/27 21:09:39;;;;;;;2.58;2.00;;;;;;;26.72;48.15;99782.84;20795031;28;20053;-71
2022/08/27 21:19:40;;;;;;;1.80;1.70;;;;;;;26.71;48.02;99789.16;20758471;28;20147;-71
2022/08/27 21:29:40;;;;;;;1.70;1.50;;;;;;;26.71;48.43;99796.28;20780774;28;20124;-71
2022/08/27 21:39:41;;;;;;;2.20;1.80;;;;;;;26.70;48.18;99811.38;20778771;28;20496;-71
2022/08/27 21:49:41;;;;;;;;;;;;;;;26.62;48.60;99814.91;20791380;28;20095;-71
2022/08/27 21:59:46;;;;;;;1.88;1.77;;;;;;;26.67;48.74;99811.72;20726549;28;20319;-70
2022/08/27 22:09:46;;;;;;;1.85;1.70;;;;;;;26.66;48.74;99815.41;20777125;28;20045;-71
2022/08/27 22:19:47;;;;;;;2.13;1.93;;;;;;;26.66;48.33;99800.28;20793321;28;20120;-71
2022/08/27 22:29:47;;;;;;;2.10;2.00;;;;;;;26.66;48.39;99794.16;20772786;28;20475;-70
2022/08/27 22:39:47;;;;;;;2.00;1.80;;;;;;;26.65;48.52;99792.50;20779888;28;20034;-70
2022/08/27 22:49:48;;;;;;;2.57;1.80;;;;;;;26.63;48.33;99787.31;20777222;28;20049;-70
2022/08/27 22:59:48;;;;;;;2.03;1.67;;;;;;;26.65;48.35;99779.22;20782410;28;20038;-70
2022/08/27 23:09:49;;;;;;;2.27;2.00;;;;;;;26.64;48.79;99801.44;20776734;28;20087;-70
2022/08/27 23:19:49;;;;;;;2.08;1.83;;;;;;;26.63;48.36;99797.94;20775041;28;20130;-70
2022/08/27 23:29:49;;;;;;;2.28;1.45;;;;;;;26.63;48.34;99805.91;20767679;28;20060;-69
2022/08/27 23:39:50;;;;;;;2.28;1.88;;;;;;;26.63;48.56;99805.91;20761272;28;20046;-71
2022/08/27 23:49:50;;;;;;;2.13;1.88;;;;;;;26.64;48.41;99812.06;20787652;28;20140;-71
2022/08/27 23:59:50;;;;;;;1.65;1.52;;;;;;;26.64;48.36;99881.13;20782538;28;20045;-70
